Time;durP1;ratioP1;P1;durP2;ratioP2;P2;SDS_P1;SDS_P2;PMS_P1;PMS_P2;Temp;Humidity;BMP_temperature;BMP_pressure;BME280_temperature;BME280_humidity;BME280_pressure;Samples;Min_cycle;Max_cycle;Signal;HPM_P1;HPM_P2
2022/06/13 00:00:41;;;;;;;5.20;1.90;;;18.30;96.10;;;;;;5017009;28;20197;-70
2022/06/13 00:03:09;;;;;;;8.93;2.40;;;18.30;96.10;;;;;;5016285;28;20259;-70
2022/06/13 00:05:37;;;;;;;6.13;2.15;;;18.30;96.20;;;;;;5016739;28;20237;-70
2022/06/13 00:08:06;;;;;;;5.38;1.92;;;18.20;96.20;;;;;;5017182;28;20619;-70
2022/06/13 00:10:34;;;;;;;9.40;2.25;;;18.20;96.20;;;;;;5016738;28;20760;-69
2022/06/13 00:13:03;;;;;;;6.35;2.00;;;18.20;96.30;;;;;;5015462;28;20229;-69
2022/06/13 00:15:31;;;;;;;3.67;2.15;;;18.20;96.30;;;;;;5016971;28;20213;-69
2022/06/13 00:17:59;;;;;;;4.43;2.03;;;18.20;96.30;;;;;;5017306;28;20243;-70
2022/06/13 00:20:27;;;;;;;5.03;1.90;;;18.20;96.30;;;;;;5012919;28;20275;-70
2022/06/13 00:22:55;;;;;;;4.68;1.83;;;18.20;96.40;;;;;;5012884;28;20232;-70
2022/06/13 00:25:23;;;;;;;5.60;2.95;;;18.20;96.30;;;;;;5013622;28;20275;-70
2022/06/13 00:27:51;;;;;;;4.63;1.80;;;18.20;96.50;;;;;;5012989;28;20635;-69
2022/06/13 00:30:20;;;;;;;7.22;2.38;;;18.20;96.60;;;;;;5012041;28;20263;-71
2022/06/13 00:32:48;;;;;;;6.80;2.30;;;18.10;96.70;;;;;;5012627;28;20272;-70
2022/06/13 00:35:16;;;;;;;5.45;2.53;;;18.00;96.80;;;;;;5013835;28;20209;-70
2022/06/13 00:37:44;;;;;;;7.35;2.45;;;18.00;96.90;;;;;;5013725;28;20240;-70
2022/06/13 00:40:13;;;;;;;5.15;2.40;;;18.00;97.10;;;;;;5013078;28;20279;-70
2022/06/13 00:42:42;;;;;;;6.68;2.15;;;18.00;97.00;;;;;;5012430;28;20284;-71
2022/06/13 00:45:17;;;;;;;7.28;2.05;;;17.90;97.20;;;;;;5013298;28;20251;-70
2022/06/13 00:47:48;;;;;;;5.07;2.10;;;17.90;97.40;;;;;;5013534;28;20208;-69
2022/06/13 00:50:22;;;;;;;6.13;3.10;;;17.90;97.50;;;;;;5013210;28;20263;-69
2022/06/13 00:52:53;;;;;;;5.97;2.30;;;17.90;97.60;;;;;;5012592;28;20308;-70
2022/06/13 00:55:28;;;;;;;4.15;2.17;;;17.80;97.80;;;;;;5012649;28;20736;-70
2022/06/13 00:57:57;;;;;;;6.30;2.28;;;17.80;98.00;;;;;;5013201;28;20260;-70
2022/06/13 01:00:25;;;;;;;5.07;2.15;;;17.70;98.10;;;;;;5012705;28;20295;-70
2022/06/13 01:02:55;;;;;;;4.40;2.45;;;17.60;98.40;;;;;;5012539;28;20242;-70
2022/06/13 01:05:27;;;;;;;6.28;2.15;;;17.60;98.70;;;;;;5013104;28;20243;-70
2022/06/13 01:07:57;;;;;;;7.18;2.55;;;17.60;98.90;;;;;;5013559;28;20213;-70
2022/06/13 01:13:12;;;;;;;7.50;2.30;;;17.50;99.50;;;;;;5012260;28;20205;-70
2022/06/13 01:16:06;;;;;;;4.50;2.83;;;17.50;99.80;;;;;;5013249;28;20642;-70
2022/06/13 01:19:04;;;;;;;4.95;2.13;;;17.40;99.90;;;;;;5012995;28;20228;-70
2022/06/13 01:21:43;;;;;;;5.05;2.38;;;17.20;99.90;;;;;;5012903;28;20605;-70
2022/06/13 01:24:27;;;;;;;4.07;2.25;;;17.20;99.90;;;;;;5012495;28;20205;-70
2022/06/13 01:27:22;;;;;;;7.20;3.33;;;17.10;99.90;;;;;;5006999;28;20201;-70
2022/06/13 01:29:57;;;;;;;4.07;2.17;;;17.10;99.90;;;;;;5010709;28;20645;-71
2022/06/13 01:32:37;;;;;;;9.18;3.00;;;17.00;99.90;;;;;;5011473;28;20205;-70
2022/06/13 01:35:21;;;;;;;9.15;2.33;;;17.00;99.90;;;;;;5012686;28;20212;-70
2022/06/13 01:38:00;;;;;;;3.63;2.22;;;17.00;99.90;;;;;;5012322;28;20253;-70
2022/06/13 01:40:35;;;;;;;5.60;2.53;;;16.90;99.90;;;;;;5012205;28;20255;-69
2022/06/13 01:43:12;;;;;;;6.70;2.97;;;16.80;99.90;;;;;;5011678;28;20224;-70
2022/06/13 01:45:45;;;;;;;4.93;2.17;;;16.80;99.90;;;;;;5012388;28;20686;-70
2022/06/13 01:48:29;;;;;;;3.97;2.78;;;16.80;99.90;;;;;;5012286;28;20205;-69
2022/06/13 01:51:04;;;;;;;9.07;3.08;;;16.80;99.90;;;;;;5001850;28;20193;-70
2022/06/13 01:53:42;;;;;;;4.70;2.25;;;16.70;99.90;;;;;;5011667;28;20251;-70
2022/06/13 01:56:12;;;;;;;5.45;2.60;;;16.70;99.90;;;;;;5013410;28;20196;-69
2022/06/13 01:58:45;;;;;;;3.15;1.90;;;16.70;99.90;;;;;;5011495;28;20245;-69
2022/06/13 02:01:22;;;;;;;5.25;1.63;;;16.70;99.90;;;;;;5011632;28;20209;-70
2022/06/13 02:03:55;;;;;;;4.28;2.25;;;16.70;99.90;;;;;;5011458;28;20292;-70
2022/06/13 02:06:27;;;;;;;5.53;2.17;;;16.80;99.90;;;;;;5011994;28;20236;-70
2022/06/13 02:09:00;;;;;;;3.67;1.85;;;16.70;99.90;;;;;;5011785;28;20229;-70
2022/06/13 02:11:33;;;;;;;6.30;2.50;;;16.70;99.90;;;;;;5011698;28;20262;-70
2022/06/13 02:14:07;;;;;;;5.35;1.92;;;16.80;99.90;;;;;;5011019;28;20205;-70
2022/06/13 02:16:41;;;;;;;8.02;2.75;;;16.70;99.90;;;;;;5011570;28;20202;-70
2022/06/13 02:19:15;;;;;;;4.35;2.00;;;16.70;99.90;;;;;;5011640;28;20276;-70
2022/06/13 02:21:49;;;;;;;5.65;2.10;;;16.70;99.90;;;;;;5011708;28;20291;-70
2022/06/13 02:24:22;;;;;;;3.75;2.20;;;16.60;99.90;;;;;;5010899;28;20197;-70
2022/06/13 02:26:56;;;;;;;6.50;2.42;;;16.50;99.90;;;;;;5010976;28;20288;-70
2022/06/13 02:29:29;;;;;;;5.68;2.10;;;16.50;99.90;;;;;;5011770;28;20279;-70
2022/06/13 02:32:02;;;;;;;6.65;2.45;;;16.40;99.90;;;;;;5011352;28;20308;-69
2022/06/13 02:34:36;;;;;;;4.63;2.05;;;16.40;99.90;;;;;;5011710;28;20304;-70
2022/06/13 02:37:09;;;;;;;4.20;2.20;;;16.40;99.90;;;;;;5010841;28;20213;-70
2022/06/13 02:39:44;;;;;;;5.57;2.10;;;16.30;99.90;;;;;;5011505;28;20225;-70
2022/06/13 02:42:18;;;;;;;8.82;2.88;;;16.30;99.90;;;;;;5010240;28;20752;-69
2022/06/13 02:44:50;;;;;;;5.70;2.20;;;16.30;99.90;;;;;;5011507;28;20717;-69
2022/06/13 02:47:25;;;;;;;5.38;2.42;;;16.20;99.90;;;;;;5011050;28;20193;-69
2022/06/13 02:49:59;;;;;;;5.68;2.58;;;16.30;99.90;;;;;;5011603;28;20260;-69
2022/06/13 02:52:31;;;;;;;3.38;2.22;;;16.30;99.90;;;;;;5010506;28;20221;-69
2022/06/13 02:55:02;;;;;;;4.55;2.45;;;16.30;99.90;;;;;;5011387;28;20236;-69
2022/06/13 02:57:45;;;;;;;5.05;2.60;;;16.20;99.90;;;;;;5011406;28;20225;-70
2022/06/13 03:00:22;;;;;;;4.40;2.22;;;16.20;99.90;;;;;;5006673;28;20560;-69
2022/06/13 03:03:04;;;;;;;8.80;2.97;;;16.20;99.90;;;;;;5010571;28;20259;-70
2022/06/13 03:05:50;;;;;;;3.42;1.98;;;16.20;99.90;;;;;;5011041;28;20209;-70
2022/06/13 03:08:49;;;;;;;4.72;2.30;;;16.10;99.90;;;;;;5010919;28;20518;-70
2022/06/13 03:11:35;;;;;;;6.45;2.38;;;16.20;99.90;;;;;;4994787;28;20304;-69
2022/06/13 03:14:35;;;;;;;5.15;3.08;;;16.20;99.90;;;;;;5004540;28;20224;-70
2022/06/13 03:17:06;;;;;;;3.92;3.00;;;16.30;99.90;;;;;;5010846;28;20205;-70
2022/06/13 03:19:38;;;;;;;3.70;2.22;;;16.20;99.90;;;;;;5010223;28;20636;-69
2022/06/13 03:22:15;;;;;;;11.95;2.63;;;16.10;99.90;;;;;;5009640;28;20201;-70
2022/06/13 03:24:50;;;;;;;3.67;1.98;;;16.10;99.90;;;;;;5004821;28;20201;-69
2022/06/13 03:27:24;;;;;;;4.05;2.10;;;16.00;99.90;;;;;;5008142;28;20255;-70
2022/06/13 03:29:56;;;;;;;4.72;1.90;;;16.00;99.90;;;;;;5010710;28;20323;-70
2022/06/13 03:32:29;;;;;;;6.05;2.63;;;16.00;99.90;;;;;;5010340;28;20682;-70
2022/06/13 03:35:01;;;;;;;8.65;2.42;;;16.00;99.90;;;;;;5010990;28;20248;-70
2022/06/13 03:37:35;;;;;;;2.90;1.67;;;15.90;99.90;;;;;;5010633;28;20197;-70
2022/06/13 03:40:07;;;;;;;4.40;2.30;;;15.90;99.90;;;;;;5010820;28;20221;-70
2022/06/13 03:42:41;;;;;;;5.55;2.75;;;15.80;99.90;;;;;;5009651;28;20218;-72
2022/06/13 03:45:16;;;;;;;6.03;2.67;;;15.70;99.90;;;;;;5010846;28;20229;-72
2022/06/13 03:47:51;;;;;;;5.35;2.40;;;15.60;99.90;;;;;;5010503;28;20213;-72
2022/06/13 03:50:24;;;;;;;5.47;2.53;;;15.60;99.90;;;;;;5010490;28;20271;-72
2022/06/13 03:52:57;;;;;;;2.90;1.88;;;15.60;99.90;;;;;;5009674;28;20252;-72
2022/06/13 03:55:30;;;;;;;3.88;2.28;;;15.60;99.90;;;;;;5012544;28;20241;-72
2022/06/13 03:58:05;;;;;;;3.38;2.30;;;15.50;99.90;;;;;;5013299;28;20228;-72
2022/06/13 04:00:40;;;;;;;4.60;2.47;;;15.60;99.90;;;;;;4995879;28;20238;-73
2022/06/13 04:03:10;;;;;;;4.80;2.20;;;15.50;99.90;;;;;;4994075;28;20228;-74
2022/06/13 04:05:41;;;;;;;5.00;2.95;;;15.60;99.90;;;;;;4994660;28;20202;-73
2022/06/13 04:08:13;;;;;;;5.05;2.47;;;15.50;99.90;;;;;;4994271;28;20209;-74
2022/06/13 04:10:53;;;;;;;4.57;2.15;;;15.50;99.90;;;;;;4994338;28;20240;-74
2022/06/13 04:13:41;;;;;;;3.70;2.42;;;15.50;99.90;;;;;;4991879;28;20221;-74
2022/06/13 04:16:21;;;;;;;6.90;2.60;;;15.50;99.90;;;;;;4994566;28;20272;-74
2022/06/13 04:19:03;;;;;;;4.88;2.38;;;15.50;99.90;;;;;;4994284;28;20312;-74
2022/06/13 04:21:38;;;;;;;4.93;2.88;;;15.50;99.90;;;;;;4987695;28;20285;-74
2022/06/13 04:24:22;;;;;;;4.93;2.42;;;15.50;99.90;;;;;;4988250;28;20233;-74
2022/06/13 04:26:54;;;;;;;4.22;2.20;;;15.60;99.90;;;;;;4993955;28;20206;-74
2022/06/13 04:29:29;;;;;;;3.13;2.40;;;15.60;99.90;;;;;;4993775;28;20225;-74
2022/06/13 04:32:01;;;;;;;4.25;2.53;;;15.60;99.90;;;;;;4993957;28;20206;-72
2022/06/13 04:34:41;;;;;;;4.63;2.50;;;15.60;99.90;;;;;;4994157;28;20219;-72
2022/06/13 04:37:10;;;;;;;4.80;2.10;;;15.60;99.90;;;;;;4986832;28;20233;-72
2022/06/13 04:39:41;;;;;;;3.30;2.13;;;15.50;99.90;;;;;;4987464;28;20221;-70
2022/06/13 04:42:12;;;;;;;5.13;2.30;;;15.60;99.90;;;;;;4987249;28;20218;-72
2022/06/13 04:44:42;;;;;;;9.13;3.00;;;15.70;99.90;;;;;;4994086;28;20229;-72
2022/06/13 04:47:14;;;;;;;3.30;2.38;;;15.70;99.90;;;;;;4993753;28;20738;-70
2022/06/13 04:49:46;;;;;;;3.95;2.20;;;15.80;99.90;;;;;;4994063;28;20307;-72
2022/06/13 04:52:18;;;;;;;5.40;2.20;;;15.80;99.90;;;;;;4992668;28;20234;-71
2022/06/13 04:54:52;;;;;;;5.30;2.40;;;15.80;99.90;;;;;;4993607;28;20260;-72
2022/06/13 04:57:20;;;;;;;7.07;2.30;;;15.90;99.90;;;;;;4993284;28;20248;-72
2022/06/13 04:59:48;;;;;;;5.68;2.78;;;15.90;99.90;;;;;;5006966;28;20772;-72
2022/06/13 05:02:20;;;;;;;7.03;2.13;;;16.00;99.90;;;;;;5012926;28;20670;-72
2022/06/13 05:04:48;;;;;;;4.78;2.63;;;16.00;99.90;;;;;;5012867;28;20201;-72
2022/06/13 05:07:18;;;;;;;12.75;3.40;;;16.10;99.90;;;;;;5012313;28;20205;-72
2022/06/13 05:09:51;;;;;;;3.97;2.47;;;16.10;99.90;;;;;;5013003;28;20654;-72
2022/06/13 05:12:22;;;;;;;5.28;2.72;;;16.20;99.90;;;;;;5012118;28;20627;-72
2022/06/13 05:14:56;;;;;;;12.45;2.10;;;16.20;99.90;;;;;;5012802;28;20260;-71
2022/06/13 05:17:53;;;;;;;9.48;2.88;;;16.30;99.90;;;;;;5012746;28;20239;-71
2022/06/13 05:20:32;;;;;;;4.88;2.30;;;16.30;99.90;;;;;;5012935;28;20279;-70
2022/06/13 05:23:18;;;;;;;5.53;2.40;;;16.40;99.90;;;;;;5011398;28;20210;-72
2022/06/13 05:25:49;;;;;;;4.88;2.40;;;16.50;99.90;;;;;;5007252;28;20232;-73
2022/06/13 05:28:20;;;;;;;9.85;2.20;;;16.50;99.90;;;;;;5003693;28;20265;-72
2022/06/13 05:30:50;;;;;;;3.45;2.08;;;16.60;99.90;;;;;;5001944;28;20209;-71
2022/06/13 05:33:22;;;;;;;4.72;2.35;;;16.70;99.90;;;;;;5010177;28;20224;-72
2022/06/13 05:35:53;;;;;;;6.25;3.00;;;16.80;99.90;;;;;;5005044;28;20255;-72
2022/06/13 05:38:27;;;;;;;4.75;2.65;;;16.90;99.90;;;;;;5006371;28;20229;-74
2022/06/13 05:40:56;;;;;;;3.92;2.80;;;16.90;99.90;;;;;;5012246;28;20253;-72
2022/06/13 05:43:24;;;;;;;6.30;1.95;;;17.10;99.90;;;;;;5011355;28;20209;-72
2022/06/13 05:45:52;;;;;;;3.55;2.45;;;17.10;99.90;;;;;;5012294;28;20206;-72
2022/06/13 05:48:23;;;;;;;3.80;1.90;;;17.10;99.90;;;;;;5012281;28;20202;-72
2022/06/13 05:50:51;;;;;;;4.65;2.30;;;17.30;99.90;;;;;;5012083;28;20210;-71
2022/06/13 05:53:24;;;;;;;8.32;2.75;;;17.40;99.90;;;;;;5011319;28;20205;-72
2022/06/13 05:55:55;;;;;;;4.95;2.42;;;17.50;99.90;;;;;;5012257;28;20209;-73
2022/06/13 05:58:25;;;;;;;9.63;2.90;;;17.60;99.90;;;;;;5011838;28;20229;-71
2022/06/13 06:00:55;;;;;;;6.80;2.78;;;17.60;99.90;;;;;;5011818;28;20267;-73
2022/06/13 06:03:23;;;;;;;4.53;2.58;;;17.70;99.90;;;;;;5011203;28;20678;-72
2022/06/13 06:05:51;;;;;;;3.85;2.20;;;17.90;99.90;;;;;;5012187;28;20210;-72
2022/06/13 06:08:21;;;;;;;7.22;2.53;;;17.90;99.90;;;;;;4999838;28;20862;-73
2022/06/13 06:10:51;;;;;;;6.68;2.28;;;17.90;99.90;;;;;;5010912;28;20233;-73
2022/06/13 06:13:20;;;;;;;4.13;2.38;;;17.90;99.90;;;;;;5010786;28;20284;-72
2022/06/13 06:15:50;;;;;;;4.82;2.40;;;18.00;99.90;;;;;;5011563;28;20260;-72
2022/06/13 06:18:20;;;;;;;5.10;2.85;;;18.10;99.90;;;;;;5011199;28;20201;-72
2022/06/13 06:20:48;;;;;;;5.03;2.40;;;18.20;99.90;;;;;;5011335;28;20209;-73
2022/06/13 06:23:16;;;;;;;5.97;2.20;;;18.20;99.90;;;;;;5010669;28;20713;-72
2022/06/13 06:25:47;;;;;;;6.95;3.05;;;18.30;99.90;;;;;;5011629;28;20228;-72
2022/06/13 06:28:17;;;;;;;7.75;2.92;;;18.30;99.90;;;;;;5011240;28;20210;-73
2022/06/13 06:30:45;;;;;;;3.50;2.28;;;18.30;99.90;;;;;;5011339;28;20209;-72
2022/06/13 06:33:15;;;;;;;4.82;2.45;;;18.30;99.90;;;;;;5010598;28;20201;-72
2022/06/13 06:35:43;;;;;;;3.97;2.08;;;18.50;99.90;;;;;;5011194;28;20225;-72
2022/06/13 06:38:11;;;;;;;7.40;2.50;;;18.50;99.90;;;;;;5011569;28;20201;-72
2022/06/13 06:40:39;;;;;;;3.75;2.22;;;18.70;99.90;;;;;;5011158;28;20232;-72
2022/06/13 06:43:07;;;;;;;4.68;2.30;;;18.80;99.90;;;;;;5010178;28;20228;-73
2022/06/13 06:45:35;;;;;;;3.90;2.25;;;18.90;99.90;;;;;;5011292;28;20209;-72
2022/06/13 06:48:03;;;;;;;5.80;2.55;;;19.00;99.90;;;;;;5011066;28;20198;-72
2022/06/13 06:50:35;;;;;;;5.65;2.00;;;19.10;99.90;;;;;;5010797;28;20732;-72
2022/06/13 06:53:03;;;;;;;5.95;2.35;;;19.20;99.90;;;;;;5010226;28;20247;-72
2022/06/13 07:01:06;;;;;;;6.30;2.45;;;19.10;99.90;;;;;;5011014;28;20201;-72
2022/06/13 07:03:34;;;;;;;3.88;1.85;;;19.00;99.90;;;;;;5009638;28;20205;-71
2022/06/13 07:06:04;;;;;;;2.55;1.85;;;19.00;99.90;;;;;;5011151;28;20204;-72
2022/06/13 07:08:32;;;;;;;6.10;2.70;;;19.00;99.90;;;;;;5010901;28;20642;-72
2022/06/13 07:11:53;;;;;;;3.78;1.90;;;19.10;99.90;;;;;;5010978;28;20245;-72
2022/06/13 07:13:51;;;;;;;5.20;2.38;;;19.30;99.80;;;;;;5009725;28;20275;-72
2022/06/13 07:16:19;;;;;;;4.80;2.30;;;19.40;99.90;;;;;;5004617;28;20716;-71
2022/06/13 07:18:47;;;;;;;6.03;2.10;;;19.60;99.80;;;;;;5003584;28;20213;-72
2022/06/13 07:21:16;;;;;;;8.85;2.47;;;19.60;97.60;;;;;;5004371;28;20233;-72
2022/06/13 07:23:44;;;;;;;5.47;2.00;;;19.60;98.20;;;;;;5004078;28;20243;-73
2022/06/13 07:26:12;;;;;;;5.32;2.10;;;19.70;97.90;;;;;;5004549;28;20600;-72
2022/06/13 07:28:40;;;;;;;3.05;1.50;;;19.70;98.20;;;;;;5004281;28;20230;-71
2022/06/13 07:31:16;;;;;;;4.13;1.98;;;19.80;98.10;;;;;;5008273;28;20224;-72
2022/06/13 07:33:44;;;;;;;3.67;1.95;;;20.00;98.30;;;;;;5014093;28;20243;-72
2022/06/13 07:36:11;;;;;;;3.58;1.45;;;19.90;98.10;;;;;;5014747;28;20256;-72
2022/06/13 07:38:41;;;;;;;4.00;2.10;;;19.80;97.40;;;;;;5014611;28;20246;-73
2022/06/13 07:41:14;;;;;;;2.67;1.73;;;19.80;97.30;;;;;;5014489;28;20663;-72
2022/06/13 07:43:43;;;;;;;3.05;2.10;;;19.90;99.40;;;;;;5013584;28;20202;-71
2022/06/13 07:46:11;;;;;;;5.22;2.00;;;20.10;97.90;;;;;;5014539;28;20198;-71
2022/06/13 07:48:39;;;;;;;4.53;2.08;;;20.10;98.40;;;;;;5014018;28;20248;-72
2022/06/13 07:51:09;;;;;;;4.85;2.30;;;20.30;97.00;;;;;;5014559;28;20569;-72
2022/06/13 07:53:37;;;;;;;6.82;2.78;;;20.40;97.00;;;;;;5013411;28;20209;-73
2022/06/13 07:56:29;;;;;;;5.38;2.47;;;20.50;97.30;;;;;;5010807;28;20221;-72
2022/06/13 07:58:58;;;;;;;2.90;1.83;;;20.70;97.00;;;;;;5013679;28;20237;-72
2022/06/13 08:01:27;;;;;;;4.38;1.60;;;20.90;95.60;;;;;;5014051;28;20213;-72
2022/06/13 08:03:56;;;;;;;6.15;2.47;;;21.00;94.90;;;;;;5013221;28;20208;-72
2022/06/13 08:06:25;;;;;;;6.53;1.92;;;21.10;94.60;;;;;;5014219;28;20210;-72
2022/06/13 08:08:53;;;;;;;2.10;1.70;;;21.20;94.30;;;;;;5013932;28;20279;-72
2022/06/13 08:11:28;;;;;;;3.78;1.90;;;21.30;94.00;;;;;;5014136;28;20655;-72
2022/06/13 08:13:56;;;;;;;2.78;1.65;;;21.40;94.40;;;;;;5012965;28;20263;-72
2022/06/13 08:16:23;;;;;;;3.83;1.67;;;21.70;94.30;;;;;;5013487;28;20290;-73
2022/06/13 08:18:51;;;;;;;3.83;2.20;;;21.80;93.90;;;;;;5013654;28;20287;-72
2022/06/13 08:21:21;;;;;;;3.45;1.98;;;22.00;93.80;;;;;;5013842;28;20686;-72
2022/06/13 08:23:49;;;;;;;2.95;1.80;;;22.20;94.10;;;;;;5013284;28;20212;-72
2022/06/13 08:26:17;;;;;;;3.80;1.63;;;22.40;94.00;;;;;;5013727;28;20288;-70
2022/06/13 08:28:46;;;;;;;5.43;1.98;;;22.60;93.60;;;;;;5013271;28;20283;-72
2022/06/13 08:31:17;;;;;;;2.92;1.65;;;22.60;93.20;;;;;;5012360;28;20205;-72
2022/06/13 08:33:45;;;;;;;5.20;1.90;;;22.50;93.90;;;;;;5007096;28;20208;-73
2022/06/13 08:36:13;;;;;;;7.32;2.30;;;22.50;93.10;;;;;;5007362;28;20229;-71
2022/06/13 08:38:42;;;;;;;6.65;2.40;;;22.50;93.80;;;;;;5006881;28;20229;-73
2022/06/13 08:41:21;;;;;;;9.25;3.00;;;22.60;94.70;;;;;;5005162;28;20236;-74
2022/06/13 08:44:09;;;;;;;5.07;3.92;;;22.70;93.50;;;;;;5007918;28;20205;-71
2022/06/13 08:46:47;;;;;;;5.05;2.90;;;22.80;92.20;;;;;;5013429;28;20201;-74
2022/06/13 08:49:23;;;;;;;8.10;2.60;;;23.20;92.80;;;;;;5013045;28;20275;-72
2022/06/13 08:52:04;;;;;;;14.05;5.35;;;23.30;92.50;;;;;;5007029;28;20288;-72
2022/06/13 08:54:34;;;;;;;4.65;2.53;;;23.60;93.80;;;;;;5008419;28;20702;-72
2022/06/13 08:57:08;;;;;;;4.30;2.25;;;23.60;92.50;;;;;;5012372;28;20221;-72
2022/06/13 08:59:44;;;;;;;4.70;2.75;;;24.00;92.60;;;;;;5012471;28;20275;-72
2022/06/13 09:02:21;;;;;;;13.57;3.95;;;23.80;92.20;;;;;;5009660;28;20248;-72
2022/06/13 09:04:54;;;;;;;3.63;2.05;;;23.80;93.20;;;;;;5013186;28;20683;-71
2022/06/13 09:07:28;;;;;;;4.65;2.20;;;23.40;92.20;;;;;;5013311;28;20232;-72
2022/06/13 09:10:02;;;;;;;4.95;2.40;;;23.00;92.70;;;;;;5012793;28;20780;-72
2022/06/13 09:12:38;;;;;;;6.63;2.70;;;23.20;92.80;;;;;;5006197;28;20232;-72
2022/06/13 09:15:11;;;;;;;6.80;2.33;;;23.40;92.30;;;;;;5012674;28;20211;-72
2022/06/13 09:17:46;;;;;;;2.45;1.60;;;23.60;92.60;;;;;;5012912;28;20201;-72
2022/06/13 09:20:18;;;;;;;3.42;1.58;;;24.00;90.70;;;;;;5012765;28;20224;-72
2022/06/13 09:22:55;;;;;;;3.25;1.42;;;24.10;87.80;;;;;;5011509;28;20477;-72
2022/06/13 09:25:33;;;;;;;4.68;2.45;;;24.40;86.90;;;;;;5012505;28;20208;-72
2022/06/13 09:28:07;;;;;;;10.10;2.80;;;24.90;85.90;;;;;;5012942;28;20259;-72
2022/06/13 09:30:42;;;;;;;3.67;1.80;;;25.20;87.30;;;;;;5012412;28;20208;-72
2022/06/13 09:33:15;;;;;;;3.17;1.88;;;25.00;86.50;;;;;;5006693;28;20296;-72
2022/06/13 09:35:47;;;;;;;4.18;2.17;;;25.00;86.50;;;;;;5012337;28;20232;-72
2022/06/13 09:38:22;;;;;;;5.30;1.75;;;25.20;84.10;;;;;;5011759;28;20248;-72
2022/06/13 09:41:03;;;;;;;6.55;1.90;;;25.10;84.10;;;;;;5012610;28;20235;-72
2022/06/13 09:43:47;;;;;;;3.70;2.15;;;25.10;83.10;;;;;;5011568;28;20695;-73
2022/06/13 09:46:25;;;;;;;5.20;2.25;;;25.10;85.30;;;;;;5012384;28;20197;-73
2022/06/13 09:49:05;;;;;;;4.15;2.03;;;25.20;82.90;;;;;;5012089;28;20655;-72
2022/06/13 09:51:46;;;;;;;2.38;1.80;;;25.30;85.40;;;;;;5012140;28;20572;-72
2022/06/13 09:54:24;;;;;;;3.28;1.77;;;25.20;83.30;;;;;;5011723;28;20643;-72
2022/06/13 09:57:05;;;;;;;5.15;1.90;;;25.00;83.60;;;;;;5012154;28;20708;-72
2022/06/13 09:59:48;;;;;;;3.78;2.10;;;24.80;84.00;;;;;;5012505;28;20291;-73
2022/06/13 10:02:24;;;;;;;3.17;1.50;;;24.30;80.70;;;;;;5008343;28;20205;-72
2022/06/13 10:05:02;;;;;;;4.57;2.22;;;24.10;83.80;;;;;;5011793;28;20213;-72
2022/06/13 10:07:39;;;;;;;3.28;1.50;;;23.80;84.10;;;;;;5011717;28;20205;-72
2022/06/13 10:10:14;;;;;;;2.20;1.50;;;23.90;84.20;;;;;;5005476;28;20248;-72
2022/06/13 10:12:50;;;;;;;6.45;1.75;;;24.10;83.10;;;;;;5010638;28;20196;-72
2022/06/13 10:15:37;;;;;;;3.45;1.83;;;24.00;83.20;;;;;;5011641;28;20618;-72
2022/06/13 10:18:30;;;;;;;3.58;2.28;;;23.80;83.30;;;;;;5010871;28;20252;-72
2022/06/13 10:21:07;;;;;;;5.65;2.22;;;23.90;84.80;;;;;;5006997;28;20205;-73
2022/06/13 10:23:45;;;;;;;5.55;2.20;;;23.70;84.10;;;;;;5010797;28;20728;-72
2022/06/13 10:26:22;;;;;;;3.10;1.55;;;23.80;86.10;;;;;;5011820;28;20201;-72
2022/06/13 10:29:04;;;;;;;6.28;2.10;;;24.40;86.40;;;;;;5010998;28;20713;-72
2022/06/13 10:31:41;;;;;;;6.75;2.58;;;25.10;83.70;;;;;;5007174;28;20287;-72
2022/06/13 10:34:24;;;;;;;3.00;1.95;;;25.70;83.90;;;;;;5010723;28;20205;-75
2022/06/13 10:37:03;;;;;;;2.65;1.95;;;25.50;83.70;;;;;;5011429;28;20259;-71
2022/06/13 10:39:32;;;;;;;7.20;2.05;;;25.30;83.20;;;;;;5011313;28;20248;-72
2022/06/13 10:42:04;;;;;;;3.72;2.25;;;24.70;81.70;;;;;;5010959;28;20240;-72
2022/06/13 10:44:33;;;;;;;15.32;3.05;;;24.30;82.80;;;;;;5010268;28;20205;-72
2022/06/13 10:47:07;;;;;;;3.33;1.83;;;24.30;84.00;;;;;;5011181;28;20728;-72
2022/06/13 10:49:43;;;;;;;4.88;2.20;;;24.60;82.50;;;;;;5011077;28;20229;-72
2022/06/13 10:52:17;;;;;;;11.27;2.67;;;25.10;82.70;;;;;;5010357;28;20678;-71
2022/06/13 10:54:49;;;;;;;4.60;2.38;;;25.40;81.30;;;;;;5010983;28;20576;-72
2022/06/13 10:57:21;;;;;;;4.22;2.22;;;25.70;82.00;;;;;;5010782;28;20765;-73
2022/06/13 11:00:12;;;;;;;6.22;2.28;;;25.60;81.20;;;;;;5007936;28;20722;-72
2022/06/13 11:02:40;;;;;;;5.53;2.47;;;25.30;81.60;;;;;;5010311;28;20742;-71
2022/06/13 11:05:14;;;;;;;8.15;2.70;;;25.10;82.40;;;;;;5010628;28;20210;-72
2022/06/13 11:07:47;;;;;;;3.90;2.55;;;24.90;82.70;;;;;;5011193;28;20241;-72
2022/06/13 11:10:33;;;;;;;5.90;2.60;;;24.50;82.80;;;;;;5005032;28;20276;-72
2022/06/13 11:13:04;;;;;;;5.63;2.53;;;24.90;82.70;;;;;;5010432;28;20212;-71
2022/06/13 11:24:15;;;;;;;3.53;1.80;;;25.70;81.30;;;;;;5003618;28;20299;-73
2022/06/13 11:29:33;;;;;;;6.00;2.40;;;26.50;81.40;;;;;;5007658;28;20272;-72
2022/06/13 11:32:04;;;;;;;5.68;2.53;;;26.40;80.20;;;;;;5009689;28;20780;-71
2022/06/13 11:34:35;;;;;;;6.97;2.53;;;26.50;80.40;;;;;;5010575;28;20267;-71
2022/06/13 11:37:17;;;;;;;4.28;2.50;;;26.60;80.70;;;;;;5010703;28;20213;-72
2022/06/13 11:39:47;;;;;;;4.40;2.33;;;26.40;78.90;;;;;;5010896;28;20267;-72
2022/06/13 11:42:22;;;;;;;7.25;2.50;;;26.50;80.10;;;;;;5009958;28;20205;-73
2022/06/13 11:44:54;;;;;;;6.43;3.10;;;26.50;79.10;;;;;;5004236;28;20654;-72
2022/06/13 11:47:22;;;;;;;4.28;1.65;;;26.50;80.90;;;;;;5010728;28;20202;-73
2022/06/13 11:49:55;;;;;;;4.35;2.53;;;26.70;80.30;;;;;;5010661;28;20252;-70
2022/06/13 11:55:24;;;;;;;5.20;2.50;;;26.60;79.70;;;;;;5010526;28;20398;-72
2022/06/13 11:57:56;;;;;;;4.65;2.45;;;26.60;80.30;;;;;;5009597;28;20267;-71
2022/06/13 12:00:32;;;;;;;6.40;2.58;;;26.70;79.80;;;;;;5007819;28;20245;-73
2022/06/13 12:03:19;;;;;;;7.15;2.35;;;26.50;80.10;;;;;;5009547;28;20212;-72
2022/06/13 12:05:51;;;;;;;3.90;2.20;;;26.30;79.10;;;;;;5010335;28;20288;-72
2022/06/13 12:08:27;;;;;;;5.78;2.30;;;26.00;80.60;;;;;;5010727;28;20233;-72
2022/06/13 12:11:04;;;;;;;6.78;2.83;;;25.60;81.80;;;;;;5010897;28;20259;-72
2022/06/13 12:13:34;;;;;;;3.63;2.50;;;25.20;82.20;;;;;;5009372;28;20213;-72
2022/06/13 12:16:13;;;;;;;5.03;2.75;;;25.00;83.60;;;;;;5011727;28;20221;-72
2022/06/13 12:18:50;;;;;;;5.70;2.75;;;25.00;84.80;;;;;;5008419;28;20268;-72
2022/06/13 12:21:26;;;;;;;5.20;2.47;;;25.30;84.70;;;;;;5014137;28;20244;-75
2022/06/13 12:24:02;;;;;;;15.70;3.05;;;25.70;84.80;;;;;;5013321;28;20251;-72
2022/06/13 12:26:32;;;;;;;9.60;3.72;;;26.20;82.80;;;;;;5013665;28;20197;-73
2022/06/13 12:29:12;;;;;;;6.38;3.03;;;25.50;83.00;;;;;;5013466;28;20209;-72
2022/06/13 12:31:45;;;;;;;5.45;2.70;;;25.10;82.80;;;;;;5013413;28;20597;-72
2022/06/13 12:34:21;;;;;;;4.40;2.80;;;24.60;84.00;;;;;;5006800;28;20309;-71
2022/06/13 12:37:17;;;;;;;3.85;2.40;;;24.60;84.50;;;;;;5013572;28;20204;-71
2022/06/13 12:40:03;;;;;;;6.13;3.38;;;24.70;84.60;;;;;;5013171;28;20296;-69
2022/06/13 12:42:48;;;;;;;5.50;2.25;;;24.70;83.60;;;;;;5007630;28;20629;-72
2022/06/13 12:45:41;;;;;;;9.38;2.50;;;24.70;84.50;;;;;;5013240;28;20209;-73
2022/06/13 12:48:28;;;;;;;6.05;2.83;;;24.30;84.70;;;;;;5013380;28;20272;-71
2022/06/13 12:51:13;;;;;;;6.15;2.50;;;23.60;85.70;;;;;;5013540;28;20258;-71
2022/06/13 12:54:02;;;;;;;4.00;2.42;;;23.40;86.20;;;;;;5012687;28;20264;-72
2022/06/13 12:56:40;;;;;;;7.28;2.60;;;23.10;84.10;;;;;;4970189;28;20686;-71
2022/06/13 12:59:31;;;;;;;8.07;4.00;;;23.00;84.90;;;;;;5012601;28;20237;-73
2022/06/13 13:02:19;;;;;;;5.85;2.63;;;23.60;84.20;;;;;;5012570;28;20193;-72
2022/06/13 13:04:58;;;;;;;10.60;2.30;;;24.20;83.30;;;;;;5007261;28;20293;-70
2022/06/13 13:07:35;;;;;;;5.93;2.45;;;25.30;82.20;;;;;;5013191;28;20268;-71
2022/06/13 13:10:26;;;;;;;5.32;2.45;;;25.90;81.40;;;;;;4995516;28;20228;-72
2022/06/13 13:13:24;;;;;;;4.72;2.45;;;26.50;79.50;;;;;;5005546;28;20201;-72
2022/06/13 13:15:59;;;;;;;6.13;2.95;;;26.70;78.00;;;;;;5012572;28;20243;-74
2022/06/13 13:18:47;;;;;;;4.82;2.85;;;27.00;78.70;;;;;;5012814;28;20235;-74
2022/06/13 13:21:21;;;;;;;9.20;3.30;;;27.00;78.30;;;;;;5012610;28;20205;-70
2022/06/13 13:23:58;;;;;;;7.63;2.95;;;25.80;79.10;;;;;;5012162;28;20201;-72
2022/06/13 13:26:36;;;;;;;8.80;3.42;;;24.90;81.20;;;;;;5011795;28;20205;-72
2022/06/13 13:29:17;;;;;;;7.55;3.30;;;24.10;82.60;;;;;;5012533;28;20542;-72
2022/06/13 13:31:50;;;;;;;4.95;2.90;;;23.70;82.70;;;;;;5012389;28;20263;-73
2022/06/13 13:34:34;;;;;;;10.73;3.22;;;24.40;83.60;;;;;;5005454;28;20228;-70
2022/06/13 13:37:16;;;;;;;5.03;2.80;;;24.40;81.10;;;;;;5012627;28;20208;-72
2022/06/13 13:39:50;;;;;;;6.20;3.33;;;24.00;81.60;;;;;;5012186;28;20232;-72
2022/06/13 13:42:24;;;;;;;5.57;2.70;;;24.10;80.90;;;;;;5011113;28;20259;-72
2022/06/13 13:44:57;;;;;;;6.38;2.50;;;24.10;81.30;;;;;;5012187;28;20861;-72